Terminal Aerodrome Forecast
Issued by NWS Grand Forks, ND

Home | Current Version | Previous Version | Graphics & Text | Print | Product List | Glossary On
Versions: 1 2 3 4 5 6 7 8 9 10 11 12 13 14 15 16 17 18 19 20 21 22 23 24 25 26 27 28 29
000
FTUS43 KFGF 151436 AAC
TAFGFK
TAF AMD
KGFK 151436Z 1515/1612 18003KT P6SM BKN040
      TEMPO 1516/1518 3SM -SN OVC020
     FM151800 15009KT P6SM -SN BKN020
      TEMPO 1520/1523 OVC007
     FM152300 14008KT 2SM -SN OVC020
     FM160600 11007KT P6SM OVC015=

USA.gov is the U.S. government's official web portal to all federal, state and local government web resources and services.